Miltona, Minnesota
Current Conditions -  °F | °C
As of 11:53 PM on Thursday 30 Oct 2014 (Local Time) from KAXN Reporting Station
Clear Clear  
Wind Chill: 18°   Ceiling: Unl
Heat Index: 29°   Visibility: 10mi
Dew Point: 17°   Wind: 15mph
Humidity: 61%   Direction: 360°N
Pressure: 30.47"   Gusts: NA
Location:  46.04°N, 95.29°W
Report Text: KAXN 310453Z AUTO 36013KT 10SM CLR M02/M08 A3047 RMK AO2 SLP335 T10171083
Loading
Personal Weather Stations






























Interactive Weather Map New forecast layout! Learn more

10-Day Weather Forecast

Advertisements
Track Severe Weather on mobile